sensor_id;sensor_type;location;lat;lon;timestamp;P1;durP1;ratioP1;P2;durP2;ratioP2
54865;SDS011;40754;52.094;4.328;2022-12-16T00:07:01;8.18;;;1.67;;
54865;SDS011;40754;52.094;4.328;2022-12-16T00:09:49;10.05;;;1.73;;
54865;SDS011;40754;52.094;4.328;2022-12-16T00:12:54;7.93;;;1.80;;
54865;SDS011;40754;52.094;4.328;2022-12-16T00:37:33;9.98;;;2.35;;
54865;SDS011;40754;52.094;4.328;2022-12-16T00:46:52;15.07;;;2.97;;
54865;SDS011;40754;52.094;4.328;2022-12-16T00:49:18;6.35;;;2.40;;
54865;SDS011;40754;52.094;4.328;2022-12-16T00:51:44;13.63;;;2.63;;
54865;SDS011;40754;52.094;4.328;2022-12-16T00:54:09;13.43;;;2.85;;
54865;SDS011;40754;52.094;4.328;2022-12-16T00:56:35;12.45;;;2.35;;
54865;SDS011;40754;52.094;4.328;2022-12-16T00:59:01;11.52;;;2.85;;
54865;SDS011;40754;52.094;4.328;2022-12-16T01:01:27;18.67;;;2.78;;
54865;SDS011;40754;52.094;4.328;2022-12-16T01:03:55;8.48;;;1.98;;
54865;SDS011;40754;52.094;4.328;2022-12-16T01:06:21;12.05;;;2.42;;
54865;SDS011;40754;52.094;4.328;2022-12-16T01:08:47;9.65;;;2.20;;
54865;SDS011;40754;52.094;4.328;2022-12-16T01:11:16;14.80;;;2.95;;
54865;SDS011;40754;52.094;4.328;2022-12-16T01:13:43;12.20;;;2.05;;
54865;SDS011;40754;52.094;4.328;2022-12-16T01:16:09;16.38;;;2.17;;
54865;SDS011;40754;52.094;4.328;2022-12-16T01:18:41;9.57;;;2.42;;
54865;SDS011;40754;52.094;4.328;2022-12-16T01:21:07;10.60;;;2.55;;
54865;SDS011;40754;52.094;4.328;2022-12-16T01:23:33;17.08;;;2.60;;
54865;SDS011;40754;52.094;4.328;2022-12-16T01:25:59;10.77;;;2.28;;
54865;SDS011;40754;52.094;4.328;2022-12-16T01:28:28;16.50;;;2.78;;
54865;SDS011;40754;52.094;4.328;2022-12-16T01:30:54;10.50;;;2.20;;
54865;SDS011;40754;52.094;4.328;2022-12-16T01:33:26;13.88;;;2.30;;
54865;SDS011;40754;52.094;4.328;2022-12-16T01:36:03;12.30;;;2.45;;
54865;SDS011;40754;52.094;4.328;2022-12-16T01:38:30;15.90;;;2.78;;
54865;SDS011;40754;52.094;4.328;2022-12-16T01:40:56;21.98;;;2.65;;
54865;SDS011;40754;52.094;4.328;2022-12-16T01:43:24;25.23;;;2.80;;
54865;SDS011;40754;52.094;4.328;2022-12-16T01:46:36;17.02;;;2.53;;
54865;SDS011;40754;52.094;4.328;2022-12-16T01:51:23;10.18;;;2.67;;
54865;SDS011;40754;52.094;4.328;2022-12-16T01:53:58;14.13;;;2.38;;
54865;SDS011;40754;52.094;4.328;2022-12-16T01:56:34;10.00;;;2.70;;
54865;SDS011;40754;52.094;4.328;2022-12-16T01:59:02;8.75;;;1.92;;
54865;SDS011;40754;52.094;4.328;2022-12-16T02:01:28;9.90;;;2.00;;
54865;SDS011;40754;52.094;4.328;2022-12-16T02:03:54;16.10;;;2.60;;
54865;SDS011;40754;52.094;4.328;2022-12-16T02:06:21;12.00;;;2.42;;
54865;SDS011;40754;52.094;4.328;2022-12-16T02:08:47;15.05;;;2.22;;
54865;SDS011;40754;52.094;4.328;2022-12-16T02:14:17;7.43;;;2.00;;
54865;SDS011;40754;52.094;4.328;2022-12-16T02:17:07;11.63;;;2.10;;
54865;SDS011;40754;52.094;4.328;2022-12-16T02:20:08;7.90;;;2.03;;
54865;SDS011;40754;52.094;4.328;2022-12-16T02:36:44;9.80;;;2.20;;
54865;SDS011;40754;52.094;4.328;2022-12-16T02:39:32;9.48;;;2.10;;
54865;SDS011;40754;52.094;4.328;2022-12-16T02:44:34;6.05;;;1.27;;
54865;SDS011;40754;52.094;4.328;2022-12-16T02:47:06;5.35;;;1.83;;
54865;SDS011;40754;52.094;4.328;2022-12-16T02:51:58;6.50;;;1.60;;
54865;SDS011;40754;52.094;4.328;2022-12-16T02:54:25;6.30;;;1.80;;
54865;SDS011;40754;52.094;4.328;2022-12-16T03:02:29;16.75;;;1.85;;
54865;SDS011;40754;52.094;4.328;2022-12-16T03:05:09;4.45;;;1.40;;
54865;SDS011;40754;52.094;4.328;2022-12-16T03:07:43;4.05;;;1.20;;
54865;SDS011;40754;52.094;4.328;2022-12-16T03:10:10;9.15;;;2.22;;
54865;SDS011;40754;52.094;4.328;2022-12-16T03:12:43;10.70;;;1.63;;
54865;SDS011;40754;52.094;4.328;2022-12-16T03:15:10;6.93;;;1.83;;
54865;SDS011;40754;52.094;4.328;2022-12-16T03:17:40;6.93;;;1.67;;
54865;SDS011;40754;52.094;4.328;2022-12-16T03:20:11;7.57;;;1.90;;
54865;SDS011;40754;52.094;4.328;2022-12-16T03:22:41;2.70;;;1.40;;
54865;SDS011;40754;52.094;4.328;2022-12-16T03:25:09;6.57;;;1.75;;
54865;SDS011;40754;52.094;4.328;2022-12-16T03:30:25;10.70;;;1.60;;
54865;SDS011;40754;52.094;4.328;2022-12-16T03:35:30;7.00;;;1.95;;
54865;SDS011;40754;52.094;4.328;2022-12-16T03:37:58;5.53;;;1.70;;
54865;SDS011;40754;52.094;4.328;2022-12-16T03:40:26;4.55;;;1.60;;
54865;SDS011;40754;52.094;4.328;2022-12-16T03:42:53;12.85;;;2.20;;
54865;SDS011;40754;52.094;4.328;2022-12-16T03:45:21;5.75;;;1.80;;
54865;SDS011;40754;52.094;4.328;2022-12-16T03:47:55;2.90;;;1.20;;
54865;SDS011;40754;52.094;4.328;2022-12-16T03:50:23;8.85;;;1.60;;
54865;SDS011;40754;52.094;4.328;2022-12-16T03:52:51;9.18;;;1.65;;
54865;SDS011;40754;52.094;4.328;2022-12-16T03:55:17;8.52;;;1.52;;
54865;SDS011;40754;52.094;4.328;2022-12-16T03:57:43;9.15;;;1.67;;
54865;SDS011;40754;52.094;4.328;2022-12-16T04:00:09;7.50;;;1.52;;
54865;SDS011;40754;52.094;4.328;2022-12-16T04:02:35;6.70;;;2.00;;
54865;SDS011;40754;52.094;4.328;2022-12-16T04:05:01;13.75;;;1.70;;
54865;SDS011;40754;52.094;4.328;2022-12-16T04:07:26;4.93;;;2.03;;
54865;SDS011;40754;52.094;4.328;2022-12-16T04:09:52;6.78;;;1.83;;
54865;SDS011;40754;52.094;4.328;2022-12-16T04:12:18;5.57;;;1.40;;
54865;SDS011;40754;52.094;4.328;2022-12-16T04:15:04;9.25;;;1.80;;
54865;SDS011;40754;52.094;4.328;2022-12-16T04:18:01;8.70;;;1.77;;
54865;SDS011;40754;52.094;4.328;2022-12-16T04:20:46;18.95;;;2.05;;
54865;SDS011;40754;52.094;4.328;2022-12-16T04:23:33;6.38;;;2.28;;
54865;SDS011;40754;52.094;4.328;2022-12-16T04:26:17;5.82;;;2.00;;
54865;SDS011;40754;52.094;4.328;2022-12-16T04:28:43;8.98;;;1.65;;
54865;SDS011;40754;52.094;4.328;2022-12-16T04:31:09;5.03;;;1.90;;
54865;SDS011;40754;52.094;4.328;2022-12-16T04:33:35;9.77;;;1.90;;
54865;SDS011;40754;52.094;4.328;2022-12-16T04:36:20;6.78;;;1.73;;
54865;SDS011;40754;52.094;4.328;2022-12-16T04:39:06;6.40;;;1.90;;
54865;SDS011;40754;52.094;4.328;2022-12-16T04:41:51;10.18;;;2.40;;
54865;SDS011;40754;52.094;4.328;2022-12-16T04:44:36;9.60;;;2.10;;
54865;SDS011;40754;52.094;4.328;2022-12-16T04:47:20;10.63;;;1.77;;
54865;SDS011;40754;52.094;4.328;2022-12-16T04:52:51;10.73;;;2.30;;
54865;SDS011;40754;52.094;4.328;2022-12-16T04:55:36;8.43;;;2.25;;
54865;SDS011;40754;52.094;4.328;2022-12-16T04:58:20;13.85;;;2.60;;
54865;SDS011;40754;52.094;4.328;2022-12-16T05:01:04;13.10;;;2.55;;
54865;SDS011;40754;52.094;4.328;2022-12-16T05:03:49;13.70;;;2.22;;
54865;SDS011;40754;52.094;4.328;2022-12-16T05:06:33;7.80;;;2.28;;
54865;SDS011;40754;52.094;4.328;2022-12-16T05:09:16;10.52;;;2.13;;
54865;SDS011;40754;52.094;4.328;2022-12-16T05:12:00;5.63;;;2.10;;
54865;SDS011;40754;52.094;4.328;2022-12-16T05:14:44;9.38;;;2.97;;
54865;SDS011;40754;52.094;4.328;2022-12-16T05:17:28;11.63;;;2.97;;
54865;SDS011;40754;52.094;4.328;2022-12-16T05:20:12;8.98;;;2.60;;
54865;SDS011;40754;52.094;4.328;2022-12-16T05:22:57;8.32;;;2.38;;
54865;SDS011;40754;52.094;4.328;2022-12-16T05:25:41;7.63;;;2.53;;
54865;SDS011;40754;52.094;4.328;2022-12-16T05:28:27;13.18;;;2.60;;
54865;SDS011;40754;52.094;4.328;2022-12-16T05:31:11;12.57;;;2.45;;
54865;SDS011;40754;52.094;4.328;2022-12-16T05:33:56;13.95;;;2.75;;
54865;SDS011;40754;52.094;4.328;2022-12-16T05:39:25;12.95;;;3.08;;
54865;SDS011;40754;52.094;4.328;2022-12-16T05:42:09;11.38;;;2.88;;
54865;SDS011;40754;52.094;4.328;2022-12-16T05:44:53;10.23;;;3.20;;
54865;SDS011;40754;52.094;4.328;2022-12-16T05:47:38;13.52;;;2.85;;
54865;SDS011;40754;52.094;4.328;2022-12-16T05:50:22;13.70;;;2.63;;
54865;SDS011;40754;52.094;4.328;2022-12-16T05:55:50;10.50;;;2.63;;
54865;SDS011;40754;52.094;4.328;2022-12-16T05:58:35;9.30;;;2.38;;
54865;SDS011;40754;52.094;4.328;2022-12-16T06:01:19;14.30;;;2.78;;
54865;SDS011;40754;52.094;4.328;2022-12-16T06:06:47;13.15;;;2.83;;
54865;SDS011;40754;52.094;4.328;2022-12-16T06:09:31;9.02;;;2.78;;
54865;SDS011;40754;52.094;4.328;2022-12-16T06:12:15;10.85;;;2.85;;
54865;SDS011;40754;52.094;4.328;2022-12-16T06:14:59;14.60;;;2.45;;
54865;SDS011;40754;52.094;4.328;2022-12-16T06:17:47;12.15;;;2.75;;
54865;SDS011;40754;52.094;4.328;2022-12-16T06:20:32;9.43;;;2.72;;
54865;SDS011;40754;52.094;4.328;2022-12-16T06:23:16;13.00;;;3.13;;
54865;SDS011;40754;52.094;4.328;2022-12-16T06:26:00;10.82;;;3.00;;
54865;SDS011;40754;52.094;4.328;2022-12-16T06:28:44;8.80;;;3.20;;
54865;SDS011;40754;52.094;4.328;2022-12-16T06:31:28;19.27;;;3.30;;
54865;SDS011;40754;52.094;4.328;2022-12-16T06:34:13;14.73;;;3.10;;
54865;SDS011;40754;52.094;4.328;2022-12-16T06:36:56;6.10;;;2.90;;
54865;SDS011;40754;52.094;4.328;2022-12-16T06:39:41;10.73;;;2.95;;
54865;SDS011;40754;52.094;4.328;2022-12-16T06:42:25;9.73;;;2.83;;
54865;SDS011;40754;52.094;4.328;2022-12-16T06:45:10;11.45;;;3.08;;
54865;SDS011;40754;52.094;4.328;2022-12-16T06:47:54;9.70;;;3.33;;
54865;SDS011;40754;52.094;4.328;2022-12-16T06:50:38;8.57;;;3.65;;
54865;SDS011;40754;52.094;4.328;2022-12-16T06:56:07;11.05;;;3.33;;
54865;SDS011;40754;52.094;4.328;2022-12-16T06:58:50;11.10;;;3.22;;
54865;SDS011;40754;52.094;4.328;2022-12-16T07:01:37;8.50;;;3.63;;
54865;SDS011;40754;52.094;4.328;2022-12-16T07:04:22;10.75;;;3.65;;
54865;SDS011;40754;52.094;4.328;2022-12-16T07:07:07;17.23;;;3.75;;
54865;SDS011;40754;52.094;4.328;2022-12-16T07:09:51;8.80;;;3.72;;
54865;SDS011;40754;52.094;4.328;2022-12-16T07:12:35;13.93;;;3.70;;
54865;SDS011;40754;52.094;4.328;2022-12-16T07:15:20;15.27;;;3.75;;
54865;SDS011;40754;52.094;4.328;2022-12-16T07:18:04;11.70;;;4.05;;
54865;SDS011;40754;52.094;4.328;2022-12-16T07:20:49;18.98;;;4.53;;
54865;SDS011;40754;52.094;4.328;2022-12-16T07:26:17;20.92;;;4.75;;
54865;SDS011;40754;52.094;4.328;2022-12-16T07:29:01;20.90;;;4.50;;
54865;SDS011;40754;52.094;4.328;2022-12-16T07:31:45;17.67;;;5.30;;
54865;SDS011;40754;52.094;4.328;2022-12-16T07:34:40;18.67;;;4.80;;
54865;SDS011;40754;52.094;4.328;2022-12-16T07:37:24;15.60;;;4.63;;
54865;SDS011;40754;52.094;4.328;2022-12-16T07:40:09;20.90;;;5.50;;
54865;SDS011;40754;52.094;4.328;2022-12-16T07:42:53;17.88;;;5.95;;
54865;SDS011;40754;52.094;4.328;2022-12-16T07:48:21;14.77;;;4.40;;
54865;SDS011;40754;52.094;4.328;2022-12-16T07:53:50;14.27;;;5.68;;
54865;SDS011;40754;52.094;4.328;2022-12-16T07:56:34;10.90;;;5.20;;
54865;SDS011;40754;52.094;4.328;2022-12-16T07:59:20;10.98;;;5.28;;
54865;SDS011;40754;52.094;4.328;2022-12-16T08:02:07;14.52;;;4.78;;
54865;SDS011;40754;52.094;4.328;2022-12-16T08:04:52;15.95;;;6.07;;
54865;SDS011;40754;52.094;4.328;2022-12-16T08:07:38;18.70;;;5.70;;
54865;SDS011;40754;52.094;4.328;2022-12-16T08:10:25;25.60;;;8.15;;
54865;SDS011;40754;52.094;4.328;2022-12-16T08:13:10;12.68;;;6.13;;
54865;SDS011;40754;52.094;4.328;2022-12-16T08:15:56;18.02;;;5.78;;
54865;SDS011;40754;52.094;4.328;2022-12-16T08:21:26;13.88;;;5.05;;
54865;SDS011;40754;52.094;4.328;2022-12-16T08:24:10;13.50;;;4.63;;
54865;SDS011;40754;52.094;4.328;2022-12-16T08:26:55;15.80;;;5.60;;
54865;SDS011;40754;52.094;4.328;2022-12-16T08:29:38;14.27;;;5.00;;
54865;SDS011;40754;52.094;4.328;2022-12-16T08:32:25;15.00;;;4.53;;
54865;SDS011;40754;52.094;4.328;2022-12-16T08:35:13;12.57;;;5.00;;
54865;SDS011;40754;52.094;4.328;2022-12-16T08:37:57;17.45;;;5.07;;
54865;SDS011;40754;52.094;4.328;2022-12-16T08:40:42;16.75;;;5.65;;
54865;SDS011;40754;52.094;4.328;2022-12-16T08:43:29;18.55;;;5.78;;
54865;SDS011;40754;52.094;4.328;2022-12-16T08:46:14;15.93;;;6.32;;
54865;SDS011;40754;52.094;4.328;2022-12-16T08:51:42;17.42;;;5.15;;
54865;SDS011;40754;52.094;4.328;2022-12-16T08:57:10;10.60;;;4.30;;
54865;SDS011;40754;52.094;4.328;2022-12-16T08:59:55;13.82;;;4.63;;
54865;SDS011;40754;52.094;4.328;2022-12-16T09:02:38;17.30;;;5.10;;
54865;SDS011;40754;52.094;4.328;2022-12-16T09:05:22;19.95;;;4.70;;
54865;SDS011;40754;52.094;4.328;2022-12-16T09:08:07;17.63;;;5.00;;
54865;SDS011;40754;52.094;4.328;2022-12-16T09:13:35;12.32;;;4.22;;
54865;SDS011;40754;52.094;4.328;2022-12-16T09:19:03;14.95;;;4.03;;
54865;SDS011;40754;52.094;4.328;2022-12-16T09:22:01;14.02;;;4.10;;
54865;SDS011;40754;52.094;4.328;2022-12-16T09:24:45;14.30;;;4.10;;
54865;SDS011;40754;52.094;4.328;2022-12-16T09:30:13;9.55;;;3.97;;
54865;SDS011;40754;52.094;4.328;2022-12-16T09:32:57;11.00;;;3.70;;
54865;SDS011;40754;52.094;4.328;2022-12-16T09:35:44;11.65;;;4.35;;
54865;SDS011;40754;52.094;4.328;2022-12-16T09:38:29;11.95;;;3.72;;
54865;SDS011;40754;52.094;4.328;2022-12-16T09:50:19;10.07;;;3.10;;
54865;SDS011;40754;52.094;4.328;2022-12-16T09:53:09;12.02;;;4.40;;
54865;SDS011;40754;52.094;4.328;2022-12-16T09:55:56;9.85;;;2.97;;
54865;SDS011;40754;52.094;4.328;2022-12-16T09:58:45;7.72;;;3.15;;
54865;SDS011;40754;52.094;4.328;2022-12-16T10:01:35;6.43;;;2.50;;
54865;SDS011;40754;52.094;4.328;2022-12-16T10:04:20;11.73;;;3.30;;
54865;SDS011;40754;52.094;4.328;2022-12-16T10:07:05;4.82;;;1.95;;
54865;SDS011;40754;52.094;4.328;2022-12-16T10:19:56;6.28;;;1.77;;
54865;SDS011;40754;52.094;4.328;2022-12-16T10:28:45;7.57;;;2.85;;
54865;SDS011;40754;52.094;4.328;2022-12-16T10:31:31;7.35;;;2.45;;
54865;SDS011;40754;52.094;4.328;2022-12-16T10:34:20;7.22;;;2.50;;
54865;SDS011;40754;52.094;4.328;2022-12-16T10:37:13;5.45;;;3.00;;
54865;SDS011;40754;52.094;4.328;2022-12-16T10:40:00;13.30;;;4.15;;
54865;SDS011;40754;52.094;4.328;2022-12-16T10:42:47;6.78;;;2.60;;
54865;SDS011;40754;52.094;4.328;2022-12-16T10:45:35;8.70;;;2.97;;
54865;SDS011;40754;52.094;4.328;2022-12-16T10:48:25;6.68;;;2.75;;
54865;SDS011;40754;52.094;4.328;2022-12-16T10:51:15;8.07;;;2.60;;
54865;SDS011;40754;52.094;4.328;2022-12-16T10:57:14;7.68;;;3.22;;
54865;SDS011;40754;52.094;4.328;2022-12-16T11:00:09;5.75;;;2.72;;
54865;SDS011;40754;52.094;4.328;2022-12-16T11:02:55;7.20;;;2.65;;
54865;SDS011;40754;52.094;4.328;2022-12-16T11:05:40;4.38;;;2.60;;
54865;SDS011;40754;52.094;4.328;2022-12-16T11:08:34;6.10;;;2.92;;
54865;SDS011;40754;52.094;4.328;2022-12-16T11:17:14;5.25;;;2.70;;
54865;SDS011;40754;52.094;4.328;2022-12-16T11:20:07;10.25;;;2.90;;
54865;SDS011;40754;52.094;4.328;2022-12-16T11:29:19;4.40;;;2.42;;
54865;SDS011;40754;52.094;4.328;2022-12-16T11:34:54;3.10;;;1.98;;
54865;SDS011;40754;52.094;4.328;2022-12-16T11:37:40;3.63;;;1.85;;
54865;SDS011;40754;52.094;4.328;2022-12-16T11:40:25;7.32;;;3.60;;
54865;SDS011;40754;52.094;4.328;2022-12-16T11:43:11;18.88;;;8.57;;
54865;SDS011;40754;52.094;4.328;2022-12-16T11:45:56;5.70;;;3.03;;
54865;SDS011;40754;52.094;4.328;2022-12-16T11:48:43;6.72;;;1.77;;
54865;SDS011;40754;52.094;4.328;2022-12-16T11:51:32;4.70;;;1.80;;
54865;SDS011;40754;52.094;4.328;2022-12-16T11:54:22;3.60;;;2.08;;
54865;SDS011;40754;52.094;4.328;2022-12-16T12:03:43;4.22;;;2.50;;
54865;SDS011;40754;52.094;4.328;2022-12-16T12:06:35;6.85;;;2.10;;
54865;SDS011;40754;52.094;4.328;2022-12-16T12:09:44;2.67;;;1.40;;
54865;SDS011;40754;52.094;4.328;2022-12-16T12:12:55;2.97;;;1.60;;
54865;SDS011;40754;52.094;4.328;2022-12-16T12:16:15;2.13;;;1.42;;
54865;SDS011;40754;52.094;4.328;2022-12-16T12:19:15;4.57;;;1.92;;
54865;SDS011;40754;52.094;4.328;2022-12-16T12:22:10;6.07;;;2.08;;
54865;SDS011;40754;52.094;4.328;2022-12-16T12:25:12;3.58;;;1.75;;
54865;SDS011;40754;52.094;4.328;2022-12-16T12:28:09;2.95;;;1.63;;
54865;SDS011;40754;52.094;4.328;2022-12-16T12:31:07;4.47;;;1.83;;
54865;SDS011;40754;52.094;4.328;2022-12-16T12:40:25;4.53;;;2.28;;
54865;SDS011;40754;52.094;4.328;2022-12-16T12:43:30;6.20;;;2.17;;
54865;SDS011;40754;52.094;4.328;2022-12-16T12:57:55;12.43;;;3.80;;
54865;SDS011;40754;52.094;4.328;2022-12-16T13:00:42;4.40;;;2.10;;
54865;SDS011;40754;52.094;4.328;2022-12-16T13:03:38;7.03;;;1.70;;
54865;SDS011;40754;52.094;4.328;2022-12-16T13:06:35;5.75;;;2.20;;
54865;SDS011;40754;52.094;4.328;2022-12-16T13:09:22;6.82;;;2.40;;
54865;SDS011;40754;52.094;4.328;2022-12-16T13:20:47;10.38;;;2.85;;
54865;SDS011;40754;52.094;4.328;2022-12-16T13:23:34;5.50;;;2.60;;
54865;SDS011;40754;52.094;4.328;2022-12-16T13:26:23;4.35;;;2.40;;
54865;SDS011;40754;52.094;4.328;2022-12-16T13:32:20;5.55;;;2.20;;
54865;SDS011;40754;52.094;4.328;2022-12-16T13:43:50;8.90;;;2.45;;
54865;SDS011;40754;52.094;4.328;2022-12-16T13:46:39;4.60;;;2.00;;
54865;SDS011;40754;52.094;4.328;2022-12-16T13:55:47;7.07;;;1.90;;
54865;SDS011;40754;52.094;4.328;2022-12-16T14:01:36;5.10;;;2.55;;
54865;SDS011;40754;52.094;4.328;2022-12-16T14:04:25;6.85;;;2.45;;
54865;SDS011;40754;52.094;4.328;2022-12-16T14:07:12;4.05;;;2.00;;
54865;SDS011;40754;52.094;4.328;2022-12-16T14:09:57;4.13;;;1.90;;
54865;SDS011;40754;52.094;4.328;2022-12-16T14:15:33;4.47;;;2.30;;
54865;SDS011;40754;52.094;4.328;2022-12-16T14:21:44;4.93;;;2.50;;
54865;SDS011;40754;52.094;4.328;2022-12-16T14:24:34;6.30;;;2.30;;
54865;SDS011;40754;52.094;4.328;2022-12-16T14:27:20;4.72;;;2.25;;
54865;SDS011;40754;52.094;4.328;2022-12-16T14:30:16;6.72;;;2.97;;
54865;SDS011;40754;52.094;4.328;2022-12-16T14:39:28;7.25;;;2.63;;
54865;SDS011;40754;52.094;4.328;2022-12-16T14:42:20;5.72;;;3.00;;
54865;SDS011;40754;52.094;4.328;2022-12-16T14:45:19;7.38;;;3.22;;
54865;SDS011;40754;52.094;4.328;2022-12-16T14:48:33;13.77;;;5.93;;
54865;SDS011;40754;52.094;4.328;2022-12-16T14:54:20;10.52;;;5.53;;
54865;SDS011;40754;52.094;4.328;2022-12-16T14:57:16;8.00;;;3.53;;
54865;SDS011;40754;52.094;4.328;2022-12-16T15:02:53;6.47;;;3.05;;
54865;SDS011;40754;52.094;4.328;2022-12-16T15:05:57;10.20;;;2.70;;
54865;SDS011;40754;52.094;4.328;2022-12-16T15:09:03;8.27;;;3.72;;
54865;SDS011;40754;52.094;4.328;2022-12-16T15:11:48;14.25;;;3.88;;
54865;SDS011;40754;52.094;4.328;2022-12-16T15:14:36;15.30;;;3.63;;
54865;SDS011;40754;52.094;4.328;2022-12-16T15:17:22;10.50;;;3.50;;
54865;SDS011;40754;52.094;4.328;2022-12-16T15:20:22;10.93;;;3.47;;
54865;SDS011;40754;52.094;4.328;2022-12-16T15:23:13;12.10;;;4.07;;
54865;SDS011;40754;52.094;4.328;2022-12-16T15:26:03;10.23;;;3.70;;
54865;SDS011;40754;52.094;4.328;2022-12-16T15:28:47;6.68;;;3.00;;
54865;SDS011;40754;52.094;4.328;2022-12-16T15:37:13;5.88;;;3.60;;
54865;SDS011;40754;52.094;4.328;2022-12-16T15:39:58;7.60;;;3.90;;
54865;SDS011;40754;52.094;4.328;2022-12-16T15:42:42;9.05;;;3.67;;
54865;SDS011;40754;52.094;4.328;2022-12-16T15:45:32;7.40;;;4.20;;
54865;SDS011;40754;52.094;4.328;2022-12-16T15:57:22;10.93;;;5.07;;
54865;SDS011;40754;52.094;4.328;2022-12-16T16:00:21;11.05;;;4.65;;
54865;SDS011;40754;52.094;4.328;2022-12-16T16:06:17;17.23;;;5.78;;
54865;SDS011;40754;52.094;4.328;2022-12-16T16:09:13;12.00;;;5.20;;
54865;SDS011;40754;52.094;4.328;2022-12-16T16:12:00;10.48;;;4.85;;
54865;SDS011;40754;52.094;4.328;2022-12-16T16:14:44;12.65;;;4.90;;
54865;SDS011;40754;52.094;4.328;2022-12-16T16:17:28;8.68;;;4.28;;
54865;SDS011;40754;52.094;4.328;2022-12-16T16:20:14;11.52;;;4.22;;
54865;SDS011;40754;52.094;4.328;2022-12-16T16:22:59;12.00;;;4.45;;
54865;SDS011;40754;52.094;4.328;2022-12-16T16:25:43;8.90;;;3.75;;
54865;SDS011;40754;52.094;4.328;2022-12-16T16:28:28;10.15;;;4.10;;
54865;SDS011;40754;52.094;4.328;2022-12-16T16:31:12;8.70;;;4.28;;
54865;SDS011;40754;52.094;4.328;2022-12-16T16:34:11;11.90;;;5.63;;
54865;SDS011;40754;52.094;4.328;2022-12-16T16:36:55;15.35;;;5.22;;
54865;SDS011;40754;52.094;4.328;2022-12-16T16:39:40;12.48;;;5.85;;
54865;SDS011;40754;52.094;4.328;2022-12-16T16:42:25;21.58;;;5.85;;
54865;SDS011;40754;52.094;4.328;2022-12-16T16:45:09;12.82;;;5.70;;
54865;SDS011;40754;52.094;4.328;2022-12-16T16:47:55;13.00;;;5.20;;
54865;SDS011;40754;52.094;4.328;2022-12-16T16:50:47;10.15;;;5.22;;
54865;SDS011;40754;52.094;4.328;2022-12-16T16:53:30;12.38;;;5.70;;
54865;SDS011;40754;52.094;4.328;2022-12-16T16:56:14;10.80;;;5.45;;
54865;SDS011;40754;52.094;4.328;2022-12-16T16:58:58;11.23;;;6.28;;
54865;SDS011;40754;52.094;4.328;2022-12-16T17:01:42;12.90;;;5.25;;
54865;SDS011;40754;52.094;4.328;2022-12-16T17:04:27;11.07;;;5.93;;
54865;SDS011;40754;52.094;4.328;2022-12-16T17:07:11;12.02;;;5.60;;
54865;SDS011;40754;52.094;4.328;2022-12-16T17:09:55;12.38;;;6.75;;
54865;SDS011;40754;52.094;4.328;2022-12-16T17:12:39;17.85;;;6.40;;
54865;SDS011;40754;52.094;4.328;2022-12-16T17:15:27;12.98;;;6.70;;
54865;SDS011;40754;52.094;4.328;2022-12-16T17:18:14;11.07;;;5.82;;
54865;SDS011;40754;52.094;4.328;2022-12-16T17:20:58;17.80;;;6.82;;
54865;SDS011;40754;52.094;4.328;2022-12-16T17:23:42;11.15;;;6.40;;
54865;SDS011;40754;52.094;4.328;2022-12-16T17:26:26;11.15;;;6.60;;
54865;SDS011;40754;52.094;4.328;2022-12-16T17:29:14;14.32;;;6.82;;
54865;SDS011;40754;52.094;4.328;2022-12-16T17:32:01;18.02;;;7.40;;
54865;SDS011;40754;52.094;4.328;2022-12-16T17:34:45;16.77;;;7.15;;
54865;SDS011;40754;52.094;4.328;2022-12-16T17:40:13;13.90;;;6.38;;
54865;SDS011;40754;52.094;4.328;2022-12-16T17:42:57;17.13;;;6.20;;
54865;SDS011;40754;52.094;4.328;2022-12-16T17:45:41;12.63;;;6.47;;
54865;SDS011;40754;52.094;4.328;2022-12-16T17:48:25;14.55;;;6.80;;
54865;SDS011;40754;52.094;4.328;2022-12-16T17:51:09;14.93;;;6.97;;
54865;SDS011;40754;52.094;4.328;2022-12-16T17:56:37;16.35;;;7.03;;
54865;SDS011;40754;52.094;4.328;2022-12-16T18:02:05;17.88;;;8.93;;
54865;SDS011;40754;52.094;4.328;2022-12-16T18:04:49;14.80;;;8.65;;
54865;SDS011;40754;52.094;4.328;2022-12-16T18:10:17;19.08;;;9.75;;
54865;SDS011;40754;52.094;4.328;2022-12-16T18:13:01;21.70;;;10.38;;
54865;SDS011;40754;52.094;4.328;2022-12-16T18:15:51;20.52;;;10.35;;
54865;SDS011;40754;52.094;4.328;2022-12-16T18:18:35;17.58;;;10.30;;
54865;SDS011;40754;52.094;4.328;2022-12-16T18:21:19;21.88;;;11.32;;
54865;SDS011;40754;52.094;4.328;2022-12-16T18:24:07;19.33;;;10.93;;
54865;SDS011;40754;52.094;4.328;2022-12-16T18:27:11;20.80;;;10.65;;
54865;SDS011;40754;52.094;4.328;2022-12-16T18:29:55;23.27;;;11.05;;
54865;SDS011;40754;52.094;4.328;2022-12-16T18:32:39;20.08;;;10.80;;
54865;SDS011;40754;52.094;4.328;2022-12-16T18:35:23;28.77;;;14.30;;
54865;SDS011;40754;52.094;4.328;2022-12-16T18:38:07;25.50;;;13.82;;
54865;SDS011;40754;52.094;4.328;2022-12-16T18:40:51;26.35;;;12.57;;
54865;SDS011;40754;52.094;4.328;2022-12-16T18:43:44;27.30;;;15.38;;
54865;SDS011;40754;52.094;4.328;2022-12-16T18:46:28;31.58;;;16.73;;
54865;SDS011;40754;52.094;4.328;2022-12-16T18:51:56;32.65;;;16.48;;
54865;SDS011;40754;52.094;4.328;2022-12-16T18:54:40;32.08;;;16.75;;
54865;SDS011;40754;52.094;4.328;2022-12-16T18:57:24;34.60;;;16.38;;
54865;SDS011;40754;52.094;4.328;2022-12-16T19:00:08;31.42;;;15.30;;
54865;SDS011;40754;52.094;4.328;2022-12-16T19:02:52;33.05;;;16.13;;
54865;SDS011;40754;52.094;4.328;2022-12-16T19:05:36;35.97;;;17.70;;
54865;SDS011;40754;52.094;4.328;2022-12-16T19:08:20;42.15;;;17.45;;
54865;SDS011;40754;52.094;4.328;2022-12-16T19:11:04;38.17;;;19.55;;
54865;SDS011;40754;52.094;4.328;2022-12-16T19:13:48;38.33;;;19.88;;
54865;SDS011;40754;52.094;4.328;2022-12-16T19:19:16;44.00;;;19.42;;
54865;SDS011;40754;52.094;4.328;2022-12-16T19:22:00;38.70;;;18.95;;
54865;SDS011;40754;52.094;4.328;2022-12-16T19:24:44;35.00;;;18.05;;
54865;SDS011;40754;52.094;4.328;2022-12-16T19:27:28;27.65;;;14.90;;
54865;SDS011;40754;52.094;4.328;2022-12-16T19:30:15;32.45;;;15.70;;
54865;SDS011;40754;52.094;4.328;2022-12-16T19:33:00;40.42;;;20.63;;
54865;SDS011;40754;52.094;4.328;2022-12-16T19:38:28;30.38;;;15.38;;
54865;SDS011;40754;52.094;4.328;2022-12-16T19:43:57;35.40;;;17.90;;
54865;SDS011;40754;52.094;4.328;2022-12-16T19:49:25;40.00;;;19.05;;
54865;SDS011;40754;52.094;4.328;2022-12-16T19:52:09;38.13;;;19.88;;
54865;SDS011;40754;52.094;4.328;2022-12-16T19:54:53;39.08;;;16.92;;
54865;SDS011;40754;52.094;4.328;2022-12-16T19:57:37;38.58;;;19.17;;
54865;SDS011;40754;52.094;4.328;2022-12-16T20:00:21;32.90;;;16.70;;
54865;SDS011;40754;52.094;4.328;2022-12-16T20:03:14;38.35;;;20.13;;
54865;SDS011;40754;52.094;4.328;2022-12-16T20:06:08;56.92;;;30.38;;
54865;SDS011;40754;52.094;4.328;2022-12-16T20:08:53;61.15;;;31.10;;
54865;SDS011;40754;52.094;4.328;2022-12-16T20:11:37;54.58;;;27.67;;
54865;SDS011;40754;52.094;4.328;2022-12-16T20:14:22;51.42;;;27.75;;
54865;SDS011;40754;52.094;4.328;2022-12-16T20:17:06;43.17;;;23.73;;
54865;SDS011;40754;52.094;4.328;2022-12-16T20:19:51;46.40;;;24.48;;
54865;SDS011;40754;52.094;4.328;2022-12-16T20:22:35;47.17;;;23.90;;
54865;SDS011;40754;52.094;4.328;2022-12-16T20:25:19;48.17;;;26.00;;
54865;SDS011;40754;52.094;4.328;2022-12-16T20:28:03;53.60;;;24.98;;
54865;SDS011;40754;52.094;4.328;2022-12-16T20:30:47;44.67;;;21.27;;
54865;SDS011;40754;52.094;4.328;2022-12-16T20:36:15;33.15;;;15.90;;
54865;SDS011;40754;52.094;4.328;2022-12-16T20:38:59;31.67;;;14.35;;
54865;SDS011;40754;52.094;4.328;2022-12-16T20:44:27;38.03;;;20.10;;
54865;SDS011;40754;52.094;4.328;2022-12-16T20:47:11;55.63;;;27.40;;